Time;durP1;ratioP1;P1;durP2;ratioP2;P2;SDS_P1;SDS_P2;PMS_P1;PMS_P2;Temp;Humidity;BMP_temperature;BMP_pressure;BME280_temperature;BME280_humidity;BME280_pressure;Samples;Min_cycle;Max_cycle;Signal;HPM_P1;HPM_P2
2022/10/19 00:01:04;;;;;;;10.82;6.55;;;;;;;7.05;56.28;95428.50;5086528;28;20028;-73
2022/10/19 00:03:31;;;;;;;8.73;5.80;;;;;;;7.00;56.30;95425.38;5083816;28;20039;-73
2022/10/19 00:05:56;;;;;;;10.05;6.40;;;;;;;6.92;56.38;95424.06;5068925;28;20418;-74
2022/10/19 00:08:21;;;;;;;11.18;6.32;;;;;;;6.75;56.37;95382.09;5068610;28;20062;-73
2022/10/19 00:10:47;;;;;;;7.82;5.95;;;;;;;6.91;56.20;95416.44;5085350;28;20447;-73
2022/10/19 00:13:12;;;;;;;9.30;5.80;;;;;;;6.93;55.87;95399.06;5082768;28;20032;-74
2022/10/19 00:15:39;;;;;;;9.13;6.13;;;;;;;7.05;55.40;95406.09;5081145;28;20051;-72
2022/10/19 00:18:04;;;;;;;7.80;5.85;;;;;;;7.13;55.08;95406.47;5066816;28;20139;-74
2022/10/19 00:20:30;;;;;;;7.85;6.10;;;;;;;7.08;55.42;95405.09;5083977;28;20032;-73
2022/10/19 00:22:55;;;;;;;9.63;6.13;;;;;;;6.83;55.69;95372.97;5079589;28;20044;-73
2022/10/19 00:25:21;;;;;;;9.07;6.30;;;;;;;6.99;55.72;95392.72;5080802;28;20032;-73
2022/10/19 00:27:47;;;;;;;8.63;5.80;;;;;;;6.94;55.88;95398.16;5089856;28;20504;-73
2022/10/19 00:30:13;;;;;;;10.15;6.20;;;;;;;6.96;55.94;95408.38;5091387;28;20463;-73
2022/10/19 00:32:38;;;;;;;9.70;6.15;;;;;;;6.89;56.32;95397.59;5086604;28;20036;-73
2022/10/19 00:35:04;;;;;;;8.95;6.15;;;;;;;6.96;56.26;95388.56;5089619;28;20512;-73
2022/10/19 00:37:29;;;;;;;7.90;5.93;;;;;;;6.94;56.29;95386.06;5091365;28;20036;-73
2022/10/19 00:39:55;;;;;;;8.52;6.30;;;;;;;6.75;56.24;95354.50;5072844;28;20487;-74
2022/10/19 00:42:20;;;;;;;10.88;7.07;;;;;;;6.85;56.60;95375.44;5053281;28;20090;-75
2022/10/19 00:44:46;;;;;;;9.60;6.47;;;;;;;6.83;56.96;95374.72;5056104;28;20032;-74
2022/10/19 00:47:11;;;;;;;10.50;6.85;;;;;;;6.76;56.95;95370.84;5091300;28;20409;-74
2022/10/19 00:49:39;;;;;;;9.63;6.85;;;;;;;6.70;57.13;95367.69;5091118;28;20040;-73
2022/10/19 00:52:09;;;;;;;11.50;6.75;;;;;;;6.69;57.03;95366.03;5070436;28;20024;-72
2022/10/19 00:54:36;;;;;;;9.25;6.03;;;;;;;6.60;57.55;95361.41;5071967;28;20516;-73
2022/10/19 00:57:02;;;;;;;11.35;6.07;;;;;;;6.52;57.78;95342.97;5089254;28;20024;-72
2022/10/19 00:59:30;;;;;;;11.13;6.93;;;;;;;6.56;57.92;95357.34;5089692;28;20066;-73
2022/10/19 01:01:55;;;;;;;8.35;6.30;;;;;;;6.55;57.72;95350.53;5055965;28;20493;-72
2022/10/19 01:04:21;;;;;;;10.68;6.82;;;;;;;6.40;58.29;95343.66;5052849;28;20065;-72
2022/10/19 01:06:46;;;;;;;9.07;6.63;;;;;;;6.39;58.18;95353.16;5072328;28;20394;-72
2022/10/19 01:09:12;;;;;;;10.00;6.22;;;;;;;6.46;58.15;95348.47;5089958;28;20052;-72
2022/10/19 01:12:05;;;;;;;12.40;6.80;;;;;;;6.27;59.01;95343.56;5088839;28;20024;-73
2022/10/19 01:14:36;;;;;;;9.05;6.57;;;;;;;6.24;58.93;95339.41;5071277;28;20039;-72
2022/10/19 01:17:20;;;;;;;9.38;6.43;;;;;;;6.30;58.80;95332.22;5089953;28;20082;-72
2022/10/19 01:20:10;;;;;;;9.30;6.40;;;;;;;6.24;58.83;95329.06;5089561;28;20040;-72
2022/10/19 01:22:53;;;;;;;11.93;6.60;;;;;;;6.16;59.31;95331.25;5087559;28;20494;-72
2022/10/19 01:25:36;;;;;;;8.90;6.15;;;;;;;6.13;59.58;95321.13;5090605;28;20402;-72
2022/10/19 01:28:16;;;;;;;9.90;6.60;;;;;;;6.12;59.36;95328.94;5064580;28;20038;-72
2022/10/19 01:30:58;;;;;;;10.32;6.70;;;;;;;6.17;59.36;95321.78;5073673;28;20451;-72
2022/10/19 01:33:29;;;;;;;9.68;6.25;;;;;;;6.20;59.25;95317.25;5064795;28;20072;-72
2022/10/19 01:36:48;;;;;;;9.65;6.60;;;;;;;6.08;59.39;95307.66;5069754;28;20028;-72
2022/10/19 01:39:22;;;;;;;9.45;5.97;;;;;;;6.10;59.28;95318.72;5096267;28;20052;-72
2022/10/19 01:41:59;;;;;;;7.93;6.07;;;;;;;6.19;59.23;95307.88;5087868;28;20111;-72
2022/10/19 01:44:44;;;;;;;8.07;5.65;;;;;;;5.96;59.57;95296.28;5087805;28;20024;-72
2022/10/19 01:47:14;;;;;;;10.38;6.15;;;;;;;6.05;59.68;95307.84;5087225;28;20031;-72
2022/10/19 01:49:56;;;;;;;9.52;6.07;;;;;;;5.89;60.13;95302.66;5071880;28;20067;-73
2022/10/19 01:52:22;;;;;;;9.23;5.72;;;;;;;5.86;59.89;95287.38;5069993;28;20481;-73
2022/10/19 01:54:50;;;;;;;8.48;6.07;;;;;;;5.87;59.84;95298.50;5054124;28;20039;-72
2022/10/19 01:57:22;;;;;;;7.22;6.05;;;;;;;5.82;60.13;95307.34;5071127;28;20100;-71
2022/10/19 01:59:48;;;;;;;9.60;6.20;;;;;;;5.80;60.17;95298.88;5087161;28;20228;-73
2022/10/19 02:02:13;;;;;;;8.82;6.13;;;;;;;5.85;60.17;95310.66;5085654;28;20107;-71
2022/10/19 02:04:39;;;;;;;8.80;5.90;;;;;;;5.61;60.71;95308.53;5070671;28;20048;-72
2022/10/19 02:07:04;;;;;;;7.68;5.43;;;;;;;5.53;61.06;95308.97;5071315;28;20028;-71
2022/10/19 02:09:30;;;;;;;8.05;5.97;;;;;;;5.62;60.79;95307.63;5071499;28;20141;-71
2022/10/19 02:11:56;;;;;;;10.80;6.05;;;;;;;5.68;60.59;95303.88;5086536;28;20020;-71
2022/10/19 02:14:24;;;;;;;8.23;5.90;;;;;;;5.63;60.68;95303.28;5068287;28;20036;-72
2022/10/19 02:17:11;;;;;;;12.60;6.00;;;;;;;5.34;61.62;95305.72;5054203;28;20102;-71
2022/10/19 02:19:37;;;;;;;7.85;6.28;;;;;;;5.10;62.18;95307.91;5087847;28;20032;-72
2022/10/19 02:22:02;;;;;;;9.27;6.25;;;;;;;5.22;61.94;95311.56;5067742;28;20484;-72
2022/10/19 02:24:28;;;;;;;7.70;5.68;;;;;;;5.09;62.03;95295.91;5086209;28;20025;-71
2022/10/19 02:26:53;;;;;;;9.32;6.30;;;;;;;5.17;61.60;95300.66;5087685;28;20027;-71
2022/10/19 02:29:19;;;;;;;9.25;6.35;;;;;;;5.08;61.83;95295.09;5054131;28;20417;-72
2022/10/19 02:31:44;;;;;;;9.88;5.75;;;;;;;5.07;62.41;95308.91;5070399;28;20493;-72
2022/10/19 02:34:10;;;;;;;11.35;5.80;;;;;;;4.86;63.04;95297.16;5084092;28;20036;-72
2022/10/19 02:36:35;;;;;;;7.70;5.63;;;;;;;5.09;62.53;95301.06;5071317;28;20039;-72
2022/10/19 02:39:01;;;;;;;9.50;6.22;;;;;;;5.14;62.21;95294.75;5071005;28;20032;-71
2022/10/19 02:41:29;;;;;;;8.45;5.90;;;;;;;5.11;62.63;95286.38;5067773;28;20077;-72
2022/10/19 02:44:12;;;;;;;8.15;5.78;;;;;;;5.12;62.36;95286.28;5081724;28;20042;-72
2022/10/19 02:46:45;;;;;;;8.10;5.60;;;;;;;5.17;62.45;95292.94;5074187;28;20032;-72
2022/10/19 02:49:10;;;;;;;8.75;5.43;;;;;;;5.28;61.99;95290.59;5070064;28;20509;-72
2022/10/19 02:51:38;;;;;;;9.20;5.60;;;;;;;5.09;62.17;95272.75;5071217;28;20098;-72
2022/10/19 02:54:04;;;;;;;9.40;5.95;;;;;;;5.14;62.08;95276.72;5083490;28;20035;-72
2022/10/19 02:56:30;;;;;;;8.65;5.45;;;;;;;5.20;61.69;95273.00;5073352;28;20106;-73
2022/10/19 02:58:55;;;;;;;9.38;5.30;;;;;;;5.11;61.97;95276.06;5073616;28;20039;-73
2022/10/19 03:01:21;;;;;;;9.18;5.55;;;;;;;5.14;61.99;95278.47;5090892;28;20020;-73
2022/10/19 03:03:46;;;;;;;9.43;5.15;;;;;;;5.14;61.80;95278.47;5092164;28;20043;-73
2022/10/19 03:06:12;;;;;;;8.20;5.30;;;;;;;5.09;62.04;95276.13;5073977;28;20059;-73
2022/10/19 03:08:37;;;;;;;8.98;5.22;;;;;;;5.09;61.73;95277.88;5090532;28;20063;-73
2022/10/19 03:11:03;;;;;;;9.65;6.63;;;;;;;4.73;62.36;95262.66;5073894;28;20024;-73
2022/10/19 03:13:28;;;;;;;8.88;5.50;;;;;;;4.79;62.28;95283.78;5092124;28;20470;-72
2022/10/19 03:15:54;;;;;;;9.68;6.78;;;;;;;4.99;60.98;95284.47;5090633;28;20024;-73
2022/10/19 03:18:19;;;;;;;8.82;6.07;;;;;;;5.06;60.80;95288.34;5090640;28;20043;-73
2022/10/19 03:20:45;;;;;;;8.82;5.85;;;;;;;4.98;60.89;95288.75;5079631;28;20028;-73
2022/10/19 03:23:10;;;;;;;10.20;6.47;;;;;;;4.88;60.98;95296.16;5071144;28;20037;-73
2022/10/19 03:25:35;;;;;;;9.23;6.63;;;;;;;4.55;61.19;95269.63;5071468;28;20035;-73
2022/10/19 03:28:01;;;;;;;10.80;7.55;;;;;;;4.67;61.26;95300.66;5077657;28;20040;-72
2022/10/19 03:30:26;;;;;;;10.75;6.70;;;;;;;4.62;61.26;95306.97;5069126;28;20044;-72
2022/10/19 03:32:52;;;;;;;8.38;5.82;;;;;;;4.50;61.57;95305.03;5085804;28;20138;-72
2022/10/19 03:35:18;;;;;;;8.40;5.97;;;;;;;4.37;62.52;95297.91;5087428;28;20413;-72
2022/10/19 03:37:43;;;;;;;10.80;7.10;;;;;;;4.34;62.25;95298.09;5086818;28;20051;-72
2022/10/19 03:40:09;;;;;;;10.52;6.22;;;;;;;4.17;63.00;95298.94;5069259;28;20544;-72
2022/10/19 03:42:34;;;;;;;7.72;5.82;;;;;;;4.18;62.47;95281.75;5087315;28;20481;-73
2022/10/19 03:44:59;;;;;;;7.22;5.38;;;;;;;4.06;61.78;95288.34;5086297;28;20036;-72
2022/10/19 03:47:25;;;;;;;7.57;5.53;;;;;;;3.86;62.20;95280.81;5086451;28;20570;-73
2022/10/19 03:49:50;;;;;;;7.47;5.50;;;;;;;3.89;62.63;95281.47;5086769;28;20583;-72
2022/10/19 03:52:17;;;;;;;9.43;6.25;;;;;;;3.85;62.08;95274.84;5085870;28;20032;-72
2022/10/19 03:54:42;;;;;;;7.07;5.50;;;;;;;3.93;62.34;95283.00;5068752;28;20024;-72
2022/10/19 03:57:08;;;;;;;7.97;5.88;;;;;;;3.87;62.21;95278.13;5069055;28;20020;-72
2022/10/19 03:59:33;;;;;;;11.13;6.20;;;;;;;3.61;63.10;95255.47;5085591;28;20028;-73
2022/10/19 04:01:59;;;;;;;12.18;6.47;;;;;;;3.55;63.76;95266.88;5086721;28;20053;-73
2022/10/19 04:04:24;;;;;;;10.45;7.40;;;;;;;3.63;63.47;95276.78;5085540;28;20036;-72
2022/10/19 04:06:52;;;;;;;9.07;6.32;;;;;;;3.53;64.41;95274.63;5082670;28;20032;-73
2022/10/19 04:09:18;;;;;;;7.97;5.22;;;;;;;3.54;64.65;95258.34;5085164;28;20054;-72
2022/10/19 04:11:44;;;;;;;6.28;4.43;;;;;;;3.71;64.29;95270.38;5052132;28;20087;-73
2022/10/19 04:14:14;;;;;;;7.80;4.93;;;;;;;3.70;63.71;95244.72;5069236;28;20333;-72
2022/10/19 04:16:39;;;;;;;8.15;5.13;;;;;;;3.78;63.35;95260.59;5068249;28;20154;-72
2022/10/19 04:19:04;;;;;;;6.13;4.18;;;;;;;3.95;63.33;95272.63;5087828;28;20450;-72
2022/10/19 04:21:35;;;;;;;7.28;4.88;;;;;;;3.97;63.15;95263.09;5087317;28;20035;-72
2022/10/19 04:24:05;;;;;;;11.52;4.68;;;;;;;4.04;62.87;95254.19;5069500;28;20043;-72
2022/10/19 04:26:31;;;;;;;6.10;4.22;;;;;;;4.12;62.34;95257.19;5068265;28;20408;-72
2022/10/19 04:28:59;;;;;;;7.63;4.20;;;;;;;4.16;62.02;95243.28;5085103;28;20032;-72
2022/10/19 04:31:26;;;;;;;8.02;4.18;;;;;;;4.25;61.91;95259.97;5085898;28;20070;-73
2022/10/19 04:33:51;;;;;;;7.57;4.30;;;;;;;4.19;62.15;95253.41;5085701;28;20125;-72
2022/10/19 04:36:17;;;;;;;11.38;5.22;;;;;;;4.19;62.27;95247.44;5067340;28;20425;-72
2022/10/19 04:38:42;;;;;;;9.07;5.90;;;;;;;4.33;61.51;95254.44;5068553;28;20036;-72
2022/10/19 04:41:16;;;;;;;9.13;6.60;;;;;;;4.31;61.49;95245.97;5068712;28;20039;-73
2022/10/19 04:43:44;;;;;;;10.07;6.65;;;;;;;4.32;61.44;95243.34;5069136;28;20028;-72
2022/10/19 04:46:14;;;;;;;10.65;6.88;;;;;;;4.20;61.38;95239.63;5067701;28;20501;-72
2022/10/19 04:48:40;;;;;;;11.88;8.65;;;;;;;4.01;62.02;95247.47;5086311;28;20070;-73
2022/10/19 04:51:05;;;;;;;13.93;8.07;;;;;;;4.05;61.88;95260.16;5052478;28;20071;-72
2022/10/19 04:53:31;;;;;;;12.30;7.78;;;;;;;3.80;62.66;95257.06;5085898;28;20421;-72
2022/10/19 04:55:57;;;;;;;13.20;8.13;;;;;;;3.74;62.66;95267.66;5067433;28;20044;-72
2022/10/19 04:58:22;;;;;;;12.88;7.82;;;;;;;3.68;62.51;95259.41;5086465;28;20047;-72
2022/10/19 05:00:48;;;;;;;13.95;8.68;;;;;;;3.52;62.61;95242.16;5085501;28;20409;-73
2022/10/19 05:03:13;;;;;;;11.95;7.53;;;;;;;3.61;62.71;95260.59;5068201;28;20051;-72
2022/10/19 05:05:39;;;;;;;13.45;7.43;;;;;;;3.54;62.80;95245.50;5085190;28;20508;-72
2022/10/19 05:08:04;;;;;;;11.27;7.18;;;;;;;3.53;62.96;95256.66;5085877;28;20051;-73
2022/10/19 05:10:30;;;;;;;9.23;6.50;;;;;;;3.35;63.25;95250.66;5069132;28;20119;-72
2022/10/19 05:12:55;;;;;;;10.10;6.50;;;;;;;3.38;63.38;95256.56;5070628;28;20459;-72
2022/10/19 05:15:21;;;;;;;9.65;6.15;;;;;;;3.21;63.75;95263.34;5088900;28;20050;-72
2022/10/19 05:17:46;;;;;;;12.55;6.75;;;;;;;3.06;64.49;95264.03;5054918;28;20039;-72
2022/10/19 05:20:11;;;;;;;10.27;6.15;;;;;;;3.03;65.04;95265.00;5071991;28;20367;-72
2022/10/19 05:22:37;;;;;;;9.40;6.13;;;;;;;3.22;64.04;95265.00;5088880;28;20051;-72
2022/10/19 05:25:04;;;;;;;10.32;6.18;;;;;;;3.05;64.80;95257.25;5070970;28;20024;-72
2022/10/19 05:27:29;;;;;;;10.00;5.97;;;;;;;3.02;65.04;95262.53;5090418;28;20054;-72
2022/10/19 05:29:55;;;;;;;8.82;5.93;;;;;;;3.01;65.53;95245.44;5090020;28;20505;-72
2022/10/19 05:32:20;;;;;;;10.43;6.13;;;;;;;3.05;64.91;95252.94;5088579;28;20390;-72
2022/10/19 05:34:46;;;;;;;11.93;6.93;;;;;;;2.90;65.61;95238.25;5087238;28;20042;-72
2022/10/19 05:37:11;;;;;;;10.63;6.30;;;;;;;3.05;65.36;95252.13;5071350;28;20028;-72
2022/10/19 05:39:37;;;;;;;10.20;6.53;;;;;;;3.20;64.70;95248.81;5088558;28;20024;-72
2022/10/19 05:42:02;;;;;;;13.23;7.20;;;;;;;3.03;65.58;95259.03;5088640;28;20390;-72
2022/10/19 05:44:27;;;;;;;14.05;6.88;;;;;;;2.87;65.77;95258.91;5089734;28;20036;-72
2022/10/19 05:46:53;;;;;;;12.75;7.82;;;;;;;2.84;66.31;95259.03;5087035;28;20044;-72
2022/10/19 05:49:20;;;;;;;13.63;7.55;;;;;;;2.85;66.55;95260.72;5089672;28;20036;-71
2022/10/19 05:51:45;;;;;;;12.32;7.97;;;;;;;2.82;66.46;95236.03;5069373;28;20036;-72
2022/10/19 05:54:11;;;;;;;11.68;7.68;;;;;;;2.89;67.02;95262.25;5088913;28;20490;-73
2022/10/19 05:56:36;;;;;;;11.38;7.57;;;;;;;2.94;67.05;95246.63;5087834;28;20495;-72
2022/10/19 05:59:04;;;;;;;15.80;7.35;;;;;;;3.08;67.19;95268.19;5086449;28;20043;-73
2022/10/19 06:01:29;;;;;;;10.52;6.85;;;;;;;3.14;67.13;95267.91;5071731;28;20425;-72
2022/10/19 06:03:56;;;;;;;10.80;6.68;;;;;;;3.19;66.78;95265.13;5087662;28;20032;-73
2022/10/19 06:06:22;;;;;;;9.27;6.35;;;;;;;3.11;66.88;95260.34;5070054;28;20028;-73
2022/10/19 06:08:48;;;;;;;12.35;6.18;;;;;;;3.13;66.84;95275.69;5070207;28;20406;-73
2022/10/19 06:11:18;;;;;;;10.73;6.07;;;;;;;3.12;67.11;95269.72;5087912;28;20024;-73
2022/10/19 06:13:44;;;;;;;9.73;6.55;;;;;;;3.22;66.88;95264.16;5071212;28;20577;-73
2022/10/19 06:16:10;;;;;;;10.60;6.32;;;;;;;3.42;65.84;95274.31;5086498;28;20028;-72
2022/10/19 06:18:36;;;;;;;8.52;6.13;;;;;;;3.58;65.87;95277.81;5087455;28;20492;-72
2022/10/19 06:21:03;;;;;;;13.25;6.07;;;;;;;4.41;64.27;95289.16;5085769;28;20130;-72
2022/10/19 06:23:29;;;;;;;9.02;5.88;;;;;;;5.52;60.91;95275.56;5069573;28;20047;-73
2022/10/19 06:25:54;;;;;;;15.35;6.45;;;;;;;6.52;57.60;95275.84;5088483;28;20107;-73
2022/10/19 06:28:20;;;;;;;8.70;5.95;;;;;;;7.68;54.12;95285.91;5085860;28;20033;-73
2022/10/19 06:30:45;;;;;;;9.38;6.00;;;;;;;8.62;51.52;95285.81;5079725;28;20032;-73
2022/10/19 06:33:11;;;;;;;9.38;5.47;;;;;;;9.30;49.49;95283.72;5080787;28;20466;-73
2022/10/19 06:35:37;;;;;;;11.13;6.18;;;;;;;9.99;48.25;95278.78;5084903;28;20047;-73
2022/10/19 06:38:03;;;;;;;16.27;8.65;;;;;;;10.58;46.03;95278.75;5086009;28;20032;-73
2022/10/19 06:40:28;;;;;;;32.22;14.75;;;;;;;11.09;44.25;95280.94;5065495;28;20037;-73
2022/10/19 06:42:54;;;;;;;24.80;12.18;;;;;;;11.52;42.85;95277.56;5088487;28;20113;-73
2022/10/19 06:45:20;;;;;;;54.53;24.17;;;;;;;11.91;42.18;95271.91;5087266;28;20028;-73
2022/10/19 06:47:45;;;;;;;31.90;15.27;;;;;;;12.45;41.46;95270.94;5068812;28;20039;-73
2022/10/19 06:50:11;;;;;;;37.90;16.75;;;;;;;12.99;40.16;95256.84;5069958;28;20028;-73
2022/10/19 06:52:37;;;;;;;32.83;16.55;;;;;;;13.75;38.82;95254.59;5087206;28;20120;-72
2022/10/19 06:55:03;;;;;;;15.95;8.85;;;;;;;14.14;38.17;95257.22;5085907;28;20485;-73
2022/10/19 06:57:29;;;;;;;25.15;12.32;;;;;;;14.25;37.03;95254.47;5087082;28;20028;-73
2022/10/19 06:59:54;;;;;;;16.02;9.02;;;;;;;14.15;37.52;95251.06;5085363;28;20028;-73
2022/10/19 07:02:20;;;;;;;20.42;9.73;;;;;;;14.09;37.77;95243.75;5086985;28;20081;-73
2022/10/19 07:04:45;;;;;;;13.55;8.55;;;;;;;14.21;37.92;95234.81;5086304;28;20016;-73
2022/10/19 07:07:11;;;;;;;11.23;7.25;;;;;;;13.95;38.72;95226.72;5067102;28;20024;-73
2022/10/19 07:09:36;;;;;;;13.27;8.07;;;;;;;14.81;36.80;95239.81;5069354;28;20429;-73
2022/10/19 07:12:02;;;;;;;11.05;7.38;;;;;;;15.69;35.75;95234.19;5087962;28;20031;-73
2022/10/19 07:14:27;;;;;;;12.52;7.40;;;;;;;16.52;34.55;95238.19;5087240;28;20043;-73
2022/10/19 07:16:54;;;;;;;10.60;7.13;;;;;;;17.05;33.76;95227.69;5085379;28;20595;-73
2022/10/19 07:19:20;;;;;;;14.88;8.07;;;;;;;17.57;32.30;95231.03;5088052;28;20087;-73
2022/10/19 07:21:49;;;;;;;9.10;6.50;;;;;;;18.19;31.78;95222.81;5053103;28;20474;-73
2022/10/19 07:24:14;;;;;;;14.32;9.85;;;;;;;18.53;30.05;95227.06;5053117;28;20061;-73
2022/10/19 07:26:39;;;;;;;19.95;9.63;;;;;;;19.33;29.25;95216.50;5070155;28;20028;-73
2022/10/19 07:29:05;;;;;;;13.30;6.88;;;;;;;19.88;29.57;95220.03;5087146;28;20141;-73
2022/10/19 07:31:31;;;;;;;12.45;6.97;;;;;;;20.40;28.46;95219.34;5086505;28;20028;-73
2022/10/19 07:34:01;;;;;;;9.93;6.95;;;;;;;20.96;28.13;95211.91;5069094;28;20124;-73
2022/10/19 07:36:27;;;;;;;18.65;11.90;;;;;;;21.48;26.83;95214.63;5066850;28;20058;-73
2022/10/19 07:38:53;;;;;;;15.32;7.25;;;;;;;21.92;26.79;95196.03;5050477;28;20115;-73
2022/10/19 07:41:19;;;;;;;11.13;8.98;;;;;;;22.65;24.84;95204.66;5081653;28;20032;-74
2022/10/19 07:43:45;;;;;;;14.18;8.10;;;;;;;22.95;24.89;95194.69;5076602;28;20036;-74
2022/10/19 07:46:12;;;;;;;13.23;7.93;;;;;;;23.19;23.99;95197.91;5080589;28;20493;-73
2022/10/19 07:48:38;;;;;;;15.07;7.38;;;;;;;23.80;24.14;95195.31;5081879;28;20036;-73
2022/10/19 07:51:05;;;;;;;11.45;7.90;;;;;;;24.16;23.66;95185.41;5066549;28;20032;-74
2022/10/19 07:53:30;;;;;;;12.00;8.77;;;;;;;24.23;22.70;95186.22;5085771;28;20047;-74
2022/10/19 07:56:04;;;;;;;14.85;8.80;;;;;;;24.59;21.88;95174.41;5067885;28;20036;-74
2022/10/19 07:58:30;;;;;;;14.90;8.88;;;;;;;24.44;21.88;95183.41;5086040;28;20109;-72
2022/10/19 08:01:00;;;;;;;8.38;6.32;;;;;;;23.18;25.40;95175.88;5087463;28;20481;-72
2022/10/19 08:03:26;;;;;;;12.35;7.38;;;;;;;22.13;25.96;95160.84;5069378;28;20572;-72
2022/10/19 08:05:51;;;;;;;8.82;7.25;;;;;;;21.12;26.03;95166.03;5067094;28;20039;-72
2022/10/19 08:08:17;;;;;;;10.05;6.30;;;;;;;20.70;26.33;95161.38;5080288;28;20524;-72
2022/10/19 08:10:42;;;;;;;7.22;5.20;;;;;;;20.23;26.77;95170.38;5086559;28;20413;-72
2022/10/19 08:13:07;;;;;;;7.82;5.30;;;;;;;19.90;27.40;95154.78;5052002;28;20101;-72
2022/10/19 08:15:33;;;;;;;9.55;5.45;;;;;;;19.54;28.73;95170.31;5067105;28;20378;-72
2022/10/19 08:17:59;;;;;;;10.13;5.50;;;;;;;19.09;28.16;95175.31;5086975;28;20325;-72
2022/10/19 08:20:24;;;;;;;8.00;5.35;;;;;;;18.94;29.29;95172.56;5081619;28;20036;-72
2022/10/19 08:22:49;;;;;;;10.93;5.90;;;;;;;18.76;28.01;95169.31;5084208;28;20540;-72
2022/10/19 08:25:15;;;;;;;7.53;5.35;;;;;;;18.49;28.25;95170.50;5083755;28;20028;-72
2022/10/19 08:27:40;;;;;;;10.05;5.60;;;;;;;17.89;29.04;95163.00;5086779;28;20051;-72
2022/10/19 08:30:06;;;;;;;10.32;6.10;;;;;;;17.75;30.28;95157.34;5086641;28;20032;-72
2022/10/19 08:32:32;;;;;;;11.63;6.18;;;;;;;17.64;30.81;95160.31;5086896;28;20055;-71
2022/10/19 08:34:57;;;;;;;8.10;5.85;;;;;;;17.54;30.82;95162.25;5081408;28;20035;-72
2022/10/19 08:37:23;;;;;;;9.13;5.97;;;;;;;17.54;31.67;95160.44;5070473;28;20121;-73
2022/10/19 08:39:48;;;;;;;11.55;7.07;;;;;;;17.47;31.75;95166.47;5078162;28;20418;-75
2022/10/19 08:42:16;;;;;;;12.40;7.53;;;;;;;17.39;31.98;95156.81;5078662;28;20036;-71
2022/10/19 08:44:48;;;;;;;12.43;7.55;;;;;;;17.34;32.29;95159.91;5064846;28;20108;-70
2022/10/19 08:47:38;;;;;;;11.85;7.20;;;;;;;17.24;31.32;95146.06;5084035;28;20038;-71
2022/10/19 08:50:13;;;;;;;11.05;7.40;;;;;;;17.19;32.75;95141.31;5084395;28;20505;-71
2022/10/19 08:52:39;;;;;;;14.45;8.10;;;;;;;16.97;31.86;95137.47;5067880;28;20039;-71
2022/10/19 08:55:11;;;;;;;10.98;7.57;;;;;;;16.71;31.70;95142.72;5067011;28;20509;-71
2022/10/19 08:58:24;;;;;;;16.33;7.50;;;;;;;16.61;32.35;95144.66;5060281;28;20485;-73
2022/10/19 09:01:12;;;;;;;13.73;7.63;;;;;;;16.65;32.71;95145.16;5087710;28;20044;-72
2022/10/19 09:03:55;;;;;;;15.32;8.35;;;;;;;16.67;32.53;95145.84;5085070;28;20036;-72
2022/10/19 09:06:31;;;;;;;23.00;8.23;;;;;;;16.23;33.02;95138.84;5087728;28;20020;-72
2022/10/19 09:08:56;;;;;;;19.80;8.05;;;;;;;16.40;33.48;95144.19;5073456;28;20051;-73
2022/10/19 09:11:29;;;;;;;14.20;7.97;;;;;;;16.45;33.63;95142.75;5072327;28;20032;-72
2022/10/19 09:14:23;;;;;;;17.15;9.40;;;;;;;16.34;33.46;95150.88;5073055;28;20070;-72
2022/10/19 09:16:48;;;;;;;15.75;9.23;;;;;;;16.27;33.61;95136.78;5083865;28;20126;-77
2022/10/19 09:19:21;;;;;;;14.68;9.40;;;;;;;16.27;33.68;95123.66;5081877;28;20052;-76
2022/10/19 09:21:58;;;;;;;16.15;9.90;;;;;;;16.30;33.98;95136.47;5072178;28;20020;-74
2022/10/19 09:24:44;;;;;;;16.10;9.23;;;;;;;16.44;34.51;95128.03;5072552;28;20241;-73
2022/10/19 09:27:21;;;;;;;17.35;9.57;;;;;;;16.47;34.22;95098.88;5073826;28;20052;-73
2022/10/19 09:29:48;;;;;;;11.15;7.45;;;;;;;16.84;33.69;95121.34;5072399;28;20040;-73
2022/10/19 09:32:17;;;;;;;10.45;6.38;;;;;;;16.77;34.28;95102.00;5088353;28;20057;-73
2022/10/19 09:34:44;;;;;;;10.07;5.47;;;;;;;16.99;33.74;95124.19;5069125;28;20033;-74
2022/10/19 09:37:11;;;;;;;8.57;5.28;;;;;;;17.10;33.97;95129.13;5067355;28;20035;-74
2022/10/19 09:39:36;;;;;;;10.93;5.05;;;;;;;17.09;33.68;95116.19;5069607;28;20493;-74
2022/10/19 09:42:23;;;;;;;9.52;4.70;;;;;;;17.17;34.01;95126.72;5088467;28;20038;-74
2022/10/19 09:44:49;;;;;;;9.00;4.68;;;;;;;17.40;33.35;95135.63;5070244;28;20070;-74
2022/10/19 09:47:18;;;;;;;7.88;4.38;;;;;;;17.47;33.56;95133.19;5066258;28;20020;-75
2022/10/19 09:49:45;;;;;;;9.18;4.65;;;;;;;17.66;33.34;95132.03;5087719;28;20112;-76
2022/10/19 09:52:35;;;;;;;6.40;4.38;;;;;;;17.76;33.57;95134.53;5067203;28;20036;-76
2022/10/19 09:55:06;;;;;;;6.15;4.15;;;;;;;17.81;32.73;95127.81;5085902;28;20535;-73
2022/10/19 09:57:32;;;;;;;6.75;4.30;;;;;;;17.81;33.19;95125.19;5088929;28;20082;-73
2022/10/19 09:59:57;;;;;;;6.85;4.28;;;;;;;17.69;32.85;95123.88;5085782;28;20028;-74
2022/10/19 10:02:30;;;;;;;5.57;3.50;;;;;;;17.69;32.46;95126.50;5085230;28;20123;-73
2022/10/19 10:05:05;;;;;;;4.85;3.78;;;;;;;17.72;32.41;95109.56;5079784;28;20166;-74
2022/10/19 10:07:37;;;;;;;4.75;3.55;;;;;;;17.90;32.44;95114.69;5052688;28;20506;-74
2022/10/19 10:10:24;;;;;;;5.55;3.92;;;;;;;17.99;32.10;95117.13;5087666;28;20024;-73
2022/10/19 10:12:50;;;;;;;5.22;3.80;;;;;;;17.91;32.47;95109.25;5087280;28;20032;-74
2022/10/19 10:15:20;;;;;;;5.53;4.07;;;;;;;17.84;32.17;95108.28;5066245;28;20028;-74
2022/10/19 10:17:46;;;;;;;7.07;3.60;;;;;;;17.81;32.08;95093.66;5081651;28;20036;-74
2022/10/19 10:20:29;;;;;;;6.10;3.30;;;;;;;17.95;32.35;95101.88;5086413;28;20060;-74
2022/10/19 10:22:57;;;;;;;7.07;3.92;;;;;;;17.96;31.93;95095.63;5067443;28;20035;-74
2022/10/19 10:25:25;;;;;;;6.55;3.47;;;;;;;18.04;31.54;95077.22;5084167;28;20028;-74
2022/10/19 10:28:23;;;;;;;5.07;3.45;;;;;;;18.16;31.28;95081.13;5065995;28;20029;-74
2022/10/19 10:31:02;;;;;;;5.75;3.25;;;;;;;18.15;30.34;95079.50;5087380;28;20105;-74
2022/10/19 10:33:28;;;;;;;7.22;3.50;;;;;;;18.17;31.03;95076.72;5069804;28;20420;-74
2022/10/19 10:35:56;;;;;;;5.70;3.42;;;;;;;18.21;30.86;95078.03;5065719;28;20036;-74
2022/10/19 10:38:26;;;;;;;6.40;3.50;;;;;;;18.24;30.80;95064.53;5068820;28;20053;-73
2022/10/19 10:40:54;;;;;;;4.40;3.00;;;;;;;18.29;30.09;95060.41;5064637;28;20024;-73
2022/10/19 10:43:21;;;;;;;5.78;3.40;;;;;;;18.43;30.45;95060.72;5046308;28;20033;-74
2022/10/19 10:45:52;;;;;;;7.03;3.10;;;;;;;18.40;30.05;95055.78;5060765;28;20029;-73
2022/10/19 10:48:24;;;;;;;5.88;3.83;;;;;;;18.45;30.20;95051.66;5064117;28;20339;-73
2022/10/19 10:50:50;;;;;;;5.18;3.45;;;;;;;18.56;29.92;95044.41;5081663;28;20113;-73
2022/10/19 10:53:39;;;;;;;7.47;3.33;;;;;;;18.56;30.30;95042.59;5066328;28;20152;-73
2022/10/19 10:56:05;;;;;;;5.22;3.50;;;;;;;18.61;30.16;95026.28;5080575;28;20567;-73
2022/10/19 10:58:36;;;;;;;5.25;3.55;;;;;;;18.70;30.38;95025.25;5076362;28;20122;-73
2022/10/19 11:01:04;;;;;;;5.75;3.35;;;;;;;18.69;29.77;95024.44;5082741;28;20039;-73
2022/10/19 11:03:31;;;;;;;5.93;3.15;;;;;;;18.67;28.53;95015.91;5048425;28;20052;-73
2022/10/19 11:06:01;;;;;;;4.30;3.20;;;;;;;18.66;28.68;94995.00;5085932;28;20032;-73
2022/10/19 11:08:42;;;;;;;6.28;3.28;;;;;;;18.78;28.37;95011.25;5085841;28;20044;-73
2022/10/19 11:11:14;;;;;;;7.18;4.10;;;;;;;18.89;28.39;95010.91;5088111;28;20016;-73
2022/10/19 11:13:57;;;;;;;5.68;3.53;;;;;;;18.82;27.41;94996.78;5085522;28;20413;-73
2022/10/19 11:16:31;;;;;;;7.80;3.17;;;;;;;18.88;27.70;95006.59;5067691;28;20039;-73
2022/10/19 11:19:36;;;;;;;7.45;3.38;;;;;;;18.87;27.56;94982.09;5054189;28;21432;-73
2022/10/19 11:22:05;;;;;;;7.20;3.30;;;;;;;19.15;27.71;94989.50;5089035;28;20039;-73
2022/10/19 11:24:39;;;;;;;7.00;3.10;;;;;;;19.15;27.57;94987.69;5091156;28;20051;-73
2022/10/19 11:27:10;;;;;;;6.38;3.40;;;;;;;19.29;27.70;94993.19;5085324;28;20114;-73
2022/10/19 11:29:49;;;;;;;8.32;2.95;;;;;;;19.30;27.56;94990.34;5088180;28;20032;-73
2022/10/19 11:32:55;;;;;;;5.22;3.20;;;;;;;19.38;27.49;94986.84;5069934;28;20027;-73
2022/10/19 11:35:53;;;;;;;4.32;3.20;;;;;;;19.41;27.40;94994.38;5061404;28;20029;-73
2022/10/19 11:38:22;;;;;;;5.68;3.40;;;;;;;19.38;26.59;94984.22;5075760;28;20117;-73
2022/10/19 11:41:09;;;;;;;4.53;3.40;;;;;;;19.32;26.64;94982.28;5077822;28;20689;-73
2022/10/19 11:43:43;;;;;;;6.63;3.35;;;;;;;19.26;26.29;94977.75;5083947;28;20105;-74